sensor_id;sensor_type;location;lat;lon;timestamp;pressure;altitude;pressure_sealevel;temperature;humidity
12146;BME280;6136;47.032;15.398;2023-02-24T00:01:49;97125.56;;;5.17;100.00
12146;BME280;6136;47.032;15.398;2023-02-24T00:04:19;97119.22;;;5.21;100.00
12146;BME280;6136;47.032;15.398;2023-02-24T00:06:47;97124.91;;;5.12;100.00
12146;BME280;6136;47.032;15.398;2023-02-24T00:09:18;97126.06;;;5.06;100.00
12146;BME280;6136;47.032;15.398;2023-02-24T00:11:51;97116.00;;;4.97;100.00
12146;BME280;6136;47.032;15.398;2023-02-24T00:14:20;97118.00;;;4.92;100.00
12146;BME280;6136;47.032;15.398;2023-02-24T00:16:50;97114.44;;;4.93;100.00
12146;BME280;6136;47.032;15.398;2023-02-24T00:19:21;97101.69;;;4.85;100.00
12146;BME280;6136;47.032;15.398;2023-02-24T00:21:50;97108.47;;;4.89;100.00
12146;BME280;6136;47.032;15.398;2023-02-24T00:24:27;97111.31;;;4.85;100.00
12146;BME280;6136;47.032;15.398;2023-02-24T00:26:57;97113.69;;;4.72;100.00
12146;BME280;6136;47.032;15.398;2023-02-24T00:29:27;97105.63;;;4.75;100.00
12146;BME280;6136;47.032;15.398;2023-02-24T00:31:57;97102.69;;;4.64;100.00
12146;BME280;6136;47.032;15.398;2023-02-24T00:34:27;97101.69;;;4.66;100.00
12146;BME280;6136;47.032;15.398;2023-02-24T00:36:57;97087.13;;;4.59;100.00
12146;BME280;6136;47.032;15.398;2023-02-24T00:39:27;97081.31;;;4.53;100.00
12146;BME280;6136;47.032;15.398;2023-02-24T00:42:00;97080.41;;;4.35;100.00
12146;BME280;6136;47.032;15.398;2023-02-24T00:44:32;97088.03;;;4.21;100.00
12146;BME280;6136;47.032;15.398;2023-02-24T00:47:02;97083.91;;;4.15;100.00
12146;BME280;6136;47.032;15.398;2023-02-24T00:49:33;97087.59;;;4.11;100.00
12146;BME280;6136;47.032;15.398;2023-02-24T00:52:02;97089.41;;;4.09;100.00
12146;BME280;6136;47.032;15.398;2023-02-24T00:54:35;97084.56;;;4.00;100.00
12146;BME280;6136;47.032;15.398;2023-02-24T00:57:03;97083.00;;;3.96;100.00
12146;BME280;6136;47.032;15.398;2023-02-24T00:59:34;97077.78;;;3.96;100.00
12146;BME280;6136;47.032;15.398;2023-02-24T01:02:03;97072.53;;;3.96;100.00
12146;BME280;6136;47.032;15.398;2023-02-24T01:04:33;97069.84;;;3.98;100.00
12146;BME280;6136;47.032;15.398;2023-02-24T01:07:05;97072.88;;;3.88;100.00
12146;BME280;6136;47.032;15.398;2023-02-24T01:09:39;97073.25;;;3.79;100.00
12146;BME280;6136;47.032;15.398;2023-02-24T01:12:09;97073.59;;;3.72;100.00
12146;BME280;6136;47.032;15.398;2023-02-24T01:14:55;97058.44;;;3.78;100.00
12146;BME280;6136;47.032;15.398;2023-02-24T01:17:23;97071.06;;;3.70;100.00
12146;BME280;6136;47.032;15.398;2023-02-24T01:19:52;97058.28;;;3.63;100.00
12146;BME280;6136;47.032;15.398;2023-02-24T01:22:21;97048.72;;;3.62;100.00
12146;BME280;6136;47.032;15.398;2023-02-24T01:24:51;97050.22;;;3.67;100.00
12146;BME280;6136;47.032;15.398;2023-02-24T01:27:19;97056.91;;;3.74;100.00
12146;BME280;6136;47.032;15.398;2023-02-24T01:29:47;97048.97;;;3.76;100.00
12146;BME280;6136;47.032;15.398;2023-02-24T01:32:17;97043.72;;;3.76;100.00
12146;BME280;6136;47.032;15.398;2023-02-24T01:34:49;97039.19;;;3.79;100.00
12146;BME280;6136;47.032;15.398;2023-02-24T01:37:18;97041.91;;;3.78;100.00
12146;BME280;6136;47.032;15.398;2023-02-24T01:39:47;97037.91;;;3.69;100.00
12146;BME280;6136;47.032;15.398;2023-02-24T01:42:19;97033.66;;;3.67;100.00
12146;BME280;6136;47.032;15.398;2023-02-24T01:47:50;97025.72;;;3.68;100.00
12146;BME280;6136;47.032;15.398;2023-02-24T01:50:20;97020.28;;;3.73;100.00
12146;BME280;6136;47.032;15.398;2023-02-24T01:52:52;97022.31;;;3.66;100.00
12146;BME280;6136;47.032;15.398;2023-02-24T01:55:23;97017.81;;;3.70;100.00
12146;BME280;6136;47.032;15.398;2023-02-24T01:57:57;97019.22;;;3.57;100.00
12146;BME280;6136;47.032;15.398;2023-02-24T02:00:27;97022.00;;;3.54;100.00
12146;BME280;6136;47.032;15.398;2023-02-24T02:03:08;97015.84;;;3.55;100.00
12146;BME280;6136;47.032;15.398;2023-02-24T02:05:39;97009.75;;;3.54;100.00
12146;BME280;6136;47.032;15.398;2023-02-24T02:08:08;97013.94;;;3.58;100.00
12146;BME280;6136;47.032;15.398;2023-02-24T02:10:38;97013.94;;;3.58;100.00
12146;BME280;6136;47.032;15.398;2023-02-24T02:13:13;97015.06;;;3.53;100.00
12146;BME280;6136;47.032;15.398;2023-02-24T02:15:49;97016.09;;;3.48;100.00
12146;BME280;6136;47.032;15.398;2023-02-24T02:18:30;97012.56;;;3.49;100.00
12146;BME280;6136;47.032;15.398;2023-02-24T02:21:45;97023.56;;;3.58;100.00
12146;BME280;6136;47.032;15.398;2023-02-24T02:24:43;97015.75;;;3.56;100.00
12146;BME280;6136;47.032;15.398;2023-02-24T02:27:27;97019.81;;;3.63;100.00
12146;BME280;6136;47.032;15.398;2023-02-24T02:30:36;97024.34;;;3.60;100.00
12146;BME280;6136;47.032;15.398;2023-02-24T02:36:22;97024.59;;;3.74;100.00
12146;BME280;6136;47.032;15.398;2023-02-24T02:38:59;97030.91;;;3.70;100.00
12146;BME280;6136;47.032;15.398;2023-02-24T02:41:35;97017.53;;;3.76;100.00
12146;BME280;6136;47.032;15.398;2023-02-24T02:44:08;97018.44;;;3.75;100.00
12146;BME280;6136;47.032;15.398;2023-02-24T02:46:42;97014.13;;;3.74;100.00
12146;BME280;6136;47.032;15.398;2023-02-24T02:49:15;97018.66;;;3.70;100.00
12146;BME280;6136;47.032;15.398;2023-02-24T02:51:50;97004.69;;;3.70;100.00
12146;BME280;6136;47.032;15.398;2023-02-24T02:54:25;97013.25;;;3.73;100.00
12146;BME280;6136;47.032;15.398;2023-02-24T02:56:58;97024.59;;;3.74;100.00
12146;BME280;6136;47.032;15.398;2023-02-24T02:59:30;97014.13;;;3.74;100.00
12146;BME280;6136;47.032;15.398;2023-02-24T03:02:00;96993.72;;;3.62;100.00
12146;BME280;6136;47.032;15.398;2023-02-24T03:04:40;97006.03;;;3.78;100.00
12146;BME280;6136;47.032;15.398;2023-02-24T03:07:13;97003.63;;;3.74;100.00
12146;BME280;6136;47.032;15.398;2023-02-24T03:09:46;97001.00;;;3.74;100.00
12146;BME280;6136;47.032;15.398;2023-02-24T03:12:20;97005.34;;;3.75;100.00
12146;BME280;6136;47.032;15.398;2023-02-24T03:14:51;97011.44;;;3.75;100.00
12146;BME280;6136;47.032;15.398;2023-02-24T03:17:25;97003.56;;;3.75;100.00
12146;BME280;6136;47.032;15.398;2023-02-24T03:19:58;97009.59;;;3.77;100.00
12146;BME280;6136;47.032;15.398;2023-02-24T03:22:32;97005.91;;;3.81;100.00
12146;BME280;6136;47.032;15.398;2023-02-24T03:25:04;97006.66;;;3.85;100.00
12146;BME280;6136;47.032;15.398;2023-02-24T03:27:42;97000.47;;;3.86;100.00
12146;BME280;6136;47.032;15.398;2023-02-24T03:30:19;96995.09;;;3.89;100.00
12146;BME280;6136;47.032;15.398;2023-02-24T03:32:51;97002.69;;;3.95;100.00
12146;BME280;6136;47.032;15.398;2023-02-24T03:35:26;96999.00;;;3.99;100.00
12146;BME280;6136;47.032;15.398;2023-02-24T03:37:58;96988.38;;;4.02;100.00
12146;BME280;6136;47.032;15.398;2023-02-24T03:40:27;96990.19;;;4.00;100.00
12146;BME280;6136;47.032;15.398;2023-02-24T03:43:05;96995.31;;;4.03;100.00
12146;BME280;6136;47.032;15.398;2023-02-24T03:45:36;96987.47;;;4.03;100.00
12146;BME280;6136;47.032;15.398;2023-02-24T03:48:07;96984.59;;;4.08;100.00
12146;BME280;6136;47.032;15.398;2023-02-24T03:50:38;96985.41;;;4.10;100.00
12146;BME280;6136;47.032;15.398;2023-02-24T03:53:33;96988.88;;;4.10;100.00
12146;BME280;6136;47.032;15.398;2023-02-24T03:56:18;96980.03;;;4.13;100.00
12146;BME280;6136;47.032;15.398;2023-02-24T03:59:00;96984.53;;;4.09;100.00
12146;BME280;6136;47.032;15.398;2023-02-24T04:01:40;96981.28;;;4.04;100.00
12146;BME280;6136;47.032;15.398;2023-02-24T04:04:18;96984.91;;;4.02;100.00
12146;BME280;6136;47.032;15.398;2023-02-24T04:07:07;96979.72;;;4.00;100.00
12146;BME280;6136;47.032;15.398;2023-02-24T04:09:44;96968.66;;;3.94;100.00
12146;BME280;6136;47.032;15.398;2023-02-24T04:12:18;96976.97;;;4.03;100.00
12146;BME280;6136;47.032;15.398;2023-02-24T04:14:56;96978.16;;;3.96;100.00
12146;BME280;6136;47.032;15.398;2023-02-24T04:17:32;96976.47;;;3.95;100.00
12146;BME280;6136;47.032;15.398;2023-02-24T04:20:08;96976.00;;;4.06;100.00
12146;BME280;6136;47.032;15.398;2023-02-24T04:22:46;96965.69;;;4.01;100.00
12146;BME280;6136;47.032;15.398;2023-02-24T04:25:19;96961.38;;;4.00;100.00
12146;BME280;6136;47.032;15.398;2023-02-24T04:27:53;96962.03;;;4.05;100.00
12146;BME280;6136;47.032;15.398;2023-02-24T04:30:24;96964.00;;;4.00;100.00
12146;BME280;6136;47.032;15.398;2023-02-24T04:32:54;96965.97;;;3.95;100.00
12146;BME280;6136;47.032;15.398;2023-02-24T04:35:25;96959.88;;;3.95;100.00
12146;BME280;6136;47.032;15.398;2023-02-24T04:37:55;96961.38;;;4.00;100.00
12146;BME280;6136;47.032;15.398;2023-02-24T04:40:26;96956.91;;;4.02;100.00
12146;BME280;6136;47.032;15.398;2023-02-24T04:42:54;96956.97;;;4.01;100.00
12146;BME280;6136;47.032;15.398;2023-02-24T04:45:24;96953.72;;;3.96;100.00
12146;BME280;6136;47.032;15.398;2023-02-24T04:47:54;96947.63;;;3.95;100.00
12146;BME280;6136;47.032;15.398;2023-02-24T04:50:29;96954.94;;;3.88;100.00
12146;BME280;6136;47.032;15.398;2023-02-24T04:53:00;96938.22;;;3.91;100.00
12146;BME280;6136;47.032;15.398;2023-02-24T04:55:30;96938.50;;;3.85;100.00
12146;BME280;6136;47.032;15.398;2023-02-24T04:58:00;96940.47;;;3.80;100.00
12146;BME280;6136;47.032;15.398;2023-02-24T05:00:29;96941.47;;;3.77;100.00
12146;BME280;6136;47.032;15.398;2023-02-24T05:03:03;96940.47;;;3.80;100.00
12146;BME280;6136;47.032;15.398;2023-02-24T05:05:32;96933.88;;;3.71;100.00
12146;BME280;6136;47.032;15.398;2023-02-24T05:08:02;96936.59;;;3.70;100.00
12146;BME280;6136;47.032;15.398;2023-02-24T05:10:38;96930.84;;;3.62;100.00
12146;BME280;6136;47.032;15.398;2023-02-24T05:13:07;96929.41;;;3.55;100.00
12146;BME280;6136;47.032;15.398;2023-02-24T05:15:38;96926.13;;;3.49;100.00
12146;BME280;6136;47.032;15.398;2023-02-24T05:18:09;96936.59;;;3.49;100.00
12146;BME280;6136;47.032;15.398;2023-02-24T05:20:42;96929.66;;;3.48;100.00
12146;BME280;6136;47.032;15.398;2023-02-24T05:23:30;96918.41;;;3.46;100.00
12146;BME280;6136;47.032;15.398;2023-02-24T05:26:03;96916.66;;;3.47;100.00
12146;BME280;6136;47.032;15.398;2023-02-24T05:28:35;96918.34;;;3.48;100.00
12146;BME280;6136;47.032;15.398;2023-02-24T05:31:05;96910.28;;;3.53;100.00
12146;BME280;6136;47.032;15.398;2023-02-24T05:33:36;96915.81;;;3.46;100.00
12146;BME280;6136;47.032;15.398;2023-02-24T05:36:05;96904.75;;;3.40;100.00
12146;BME280;6136;47.032;15.398;2023-02-24T05:38:35;96907.28;;;3.41;100.00
12146;BME280;6136;47.032;15.398;2023-02-24T05:41:07;96906.44;;;3.41;100.00
12146;BME280;6136;47.032;15.398;2023-02-24T05:43:40;96917.69;;;3.43;100.00
12146;BME280;6136;47.032;15.398;2023-02-24T05:46:14;96904.03;;;3.36;100.00
12146;BME280;6136;47.032;15.398;2023-02-24T05:48:42;96915.47;;;3.34;100.00
12146;BME280;6136;47.032;15.398;2023-02-24T05:51:10;96908.81;;;3.27;100.00
12146;BME280;6136;47.032;15.398;2023-02-24T05:53:39;96903.66;;;3.25;100.00
12146;BME280;6136;47.032;15.398;2023-02-24T05:56:10;96906.00;;;3.31;100.00
12146;BME280;6136;47.032;15.398;2023-02-24T05:58:38;96894.09;;;3.24;100.00
12146;BME280;6136;47.032;15.398;2023-02-24T06:01:10;96900.31;;;3.22;100.00
12146;BME280;6136;47.032;15.398;2023-02-24T06:03:42;96881.13;;;3.21;100.00
12146;BME280;6136;47.032;15.398;2023-02-24T06:06:14;96897.84;;;3.19;100.00
12146;BME280;6136;47.032;15.398;2023-02-24T06:08:43;96899.63;;;3.18;100.00
12146;BME280;6136;47.032;15.398;2023-02-24T06:11:18;96896.19;;;3.16;100.00
12146;BME280;6136;47.032;15.398;2023-02-24T06:13:47;96897.13;;;3.15;100.00
12146;BME280;6136;47.032;15.398;2023-02-24T06:16:17;96886.19;;;3.05;100.00
12146;BME280;6136;47.032;15.398;2023-02-24T06:18:47;96896.88;;;3.01;100.00
12146;BME280;6136;47.032;15.398;2023-02-24T06:21:16;96908.78;;;3.08;100.00
12146;BME280;6136;47.032;15.398;2023-02-24T06:23:46;96907.06;;;3.07;100.00
12146;BME280;6136;47.032;15.398;2023-02-24T06:26:14;96908.78;;;3.08;100.00
12146;BME280;6136;47.032;15.398;2023-02-24T06:28:46;96909.78;;;3.04;100.00
12146;BME280;6136;47.032;15.398;2023-02-24T06:31:15;96906.84;;;3.11;100.00
12146;BME280;6136;47.032;15.398;2023-02-24T06:33:44;96893.75;;;3.11;100.00
12146;BME280;6136;47.032;15.398;2023-02-24T06:36:12;96911.31;;;3.30;100.00
12146;BME280;6136;47.032;15.398;2023-02-24T06:38:41;96903.91;;;3.19;100.00
12146;BME280;6136;47.032;15.398;2023-02-24T06:41:09;96913.47;;;3.20;100.00
12146;BME280;6136;47.032;15.398;2023-02-24T06:43:38;96899.53;;;3.20;100.00
12146;BME280;6136;47.032;15.398;2023-02-24T06:46:10;96892.06;;;3.31;100.00
12146;BME280;6136;47.032;15.398;2023-02-24T06:48:39;96891.84;;;3.35;100.00
12146;BME280;6136;47.032;15.398;2023-02-24T06:51:09;96895.41;;;3.53;100.00
12146;BME280;6136;47.032;15.398;2023-02-24T06:53:39;96895.94;;;3.61;100.00
12146;BME280;6136;47.032;15.398;2023-02-24T06:56:09;96901.78;;;3.66;100.00
12146;BME280;6136;47.032;15.398;2023-02-24T06:58:42;96891.19;;;3.88;100.00
12146;BME280;6136;47.032;15.398;2023-02-24T07:01:13;96891.69;;;3.96;100.00
12146;BME280;6136;47.032;15.398;2023-02-24T07:03:42;96900.25;;;4.00;100.00
12146;BME280;6136;47.032;15.398;2023-02-24T07:06:31;96896.06;;;4.14;100.00
12146;BME280;6136;47.032;15.398;2023-02-24T07:09:02;96900.59;;;4.29;100.00
12146;BME280;6136;47.032;15.398;2023-02-24T07:11:34;96892.84;;;4.26;100.00
12146;BME280;6136;47.032;15.398;2023-02-24T07:14:03;96890.84;;;4.32;100.00
12146;BME280;6136;47.032;15.398;2023-02-24T07:16:34;96892.22;;;4.57;100.00
12146;BME280;6136;47.032;15.398;2023-02-24T07:19:04;96874.75;;;4.56;100.00
12146;BME280;6136;47.032;15.398;2023-02-24T07:21:38;96886.56;;;4.82;100.00
12146;BME280;6136;47.032;15.398;2023-02-24T07:24:07;96888.91;;;4.71;100.00
12146;BME280;6136;47.032;15.398;2023-02-24T07:26:35;96888.53;;;4.79;100.00
12146;BME280;6136;47.032;15.398;2023-02-24T07:29:08;96885.97;;;4.94;100.00
12146;BME280;6136;47.032;15.398;2023-02-24T07:31:38;96898.06;;;5.14;100.00
12146;BME280;6136;47.032;15.398;2023-02-24T07:34:08;96895.97;;;5.21;100.00
12146;BME280;6136;47.032;15.398;2023-02-24T07:36:40;96891.78;;;5.34;100.00
12146;BME280;6136;47.032;15.398;2023-02-24T07:39:16;96896.50;;;5.44;100.00
12146;BME280;6136;47.032;15.398;2023-02-24T07:41:45;96886.88;;;5.61;100.00
12146;BME280;6136;47.032;15.398;2023-02-24T07:44:17;96881.03;;;5.71;100.00
12146;BME280;6136;47.032;15.398;2023-02-24T07:46:47;96869.56;;;5.72;100.00
12146;BME280;6136;47.032;15.398;2023-02-24T07:49:17;96867.56;;;5.77;100.00
12146;BME280;6136;47.032;15.398;2023-02-24T07:51:47;96860.88;;;6.35;100.00
12146;BME280;6136;47.032;15.398;2023-02-24T07:54:19;96862.22;;;6.87;100.00
12146;BME280;6136;47.032;15.398;2023-02-24T07:56:48;96861.53;;;7.42;100.00
12146;BME280;6136;47.032;15.398;2023-02-24T07:59:24;96851.91;;;7.98;100.00
12146;BME280;6136;47.032;15.398;2023-02-24T08:01:54;96846.22;;;8.45;100.00
12146;BME280;6136;47.032;15.398;2023-02-24T08:04:25;96853.75;;;8.90;100.00
12146;BME280;6136;47.032;15.398;2023-02-24T08:06:53;96849.38;;;9.29;100.00
12146;BME280;6136;47.032;15.398;2023-02-24T08:09:30;96840.56;;;9.92;94.59
12146;BME280;6136;47.032;15.398;2023-02-24T08:12:37;96839.94;;;10.37;90.57
12146;BME280;6136;47.032;15.398;2023-02-24T08:15:09;96834.13;;;10.91;88.17
12146;BME280;6136;47.032;15.398;2023-02-24T08:17:49;96828.63;;;10.94;85.69
12146;BME280;6136;47.032;15.398;2023-02-24T08:20:19;96823.63;;;11.24;83.15
12146;BME280;6136;47.032;15.398;2023-02-24T08:22:53;96814.25;;;11.65;80.99
12146;BME280;6136;47.032;15.398;2023-02-24T08:25:24;96823.44;;;11.94;77.42
12146;BME280;6136;47.032;15.398;2023-02-24T08:28:03;96813.94;;;11.92;77.65
12146;BME280;6136;47.032;15.398;2023-02-24T08:30:37;96817.19;;;12.07;78.67
12146;BME280;6136;47.032;15.398;2023-02-24T08:33:10;96811.88;;;12.50;75.74
12146;BME280;6136;47.032;15.398;2023-02-24T08:35:42;96804.81;;;12.71;73.19
12146;BME280;6136;47.032;15.398;2023-02-24T08:38:14;96800.22;;;12.94;74.51
12146;BME280;6136;47.032;15.398;2023-02-24T08:40:44;96799.06;;;12.87;71.66
12146;BME280;6136;47.032;15.398;2023-02-24T08:43:23;96781.16;;;13.09;71.54
12146;BME280;6136;47.032;15.398;2023-02-24T08:46:02;96786.63;;;13.08;71.91
12146;BME280;6136;47.032;15.398;2023-02-24T08:48:35;96786.31;;;13.22;72.63
12146;BME280;6136;47.032;15.398;2023-02-24T08:51:08;96784.88;;;13.39;71.00
12146;BME280;6136;47.032;15.398;2023-02-24T08:53:38;96774.69;;;13.23;68.37
12146;BME280;6136;47.032;15.398;2023-02-24T08:56:10;96779.38;;;13.31;68.88
12146;BME280;6136;47.032;15.398;2023-02-24T08:58:40;96783.41;;;13.25;69.23
12146;BME280;6136;47.032;15.398;2023-02-24T09:01:16;96777.03;;;13.37;69.32
12146;BME280;6136;47.032;15.398;2023-02-24T09:03:54;96774.13;;;13.71;68.57
12146;BME280;6136;47.032;15.398;2023-02-24T09:06:32;96771.78;;;13.56;66.62
12146;BME280;6136;47.032;15.398;2023-02-24T09:09:01;96768.16;;;13.57;65.97
12146;BME280;6136;47.032;15.398;2023-02-24T09:11:48;96771.78;;;13.56;65.87
12146;BME280;6136;47.032;15.398;2023-02-24T09:14:17;96764.44;;;14.19;65.05
12146;BME280;6136;47.032;15.398;2023-02-24T09:16:56;96759.19;;;14.96;61.71
12146;BME280;6136;47.032;15.398;2023-02-24T09:19:38;96759.81;;;16.11;55.14
12146;BME280;6136;47.032;15.398;2023-02-24T09:22:29;96743.44;;;17.90;49.18
12146;BME280;6136;47.032;15.398;2023-02-24T09:25:24;96750.47;;;18.41;48.30
12146;BME280;6136;47.032;15.398;2023-02-24T09:28:08;96740.19;;;19.27;46.90
12146;BME280;6136;47.032;15.398;2023-02-24T09:30:44;96735.31;;;19.06;44.86
12146;BME280;6136;47.032;15.398;2023-02-24T09:33:22;96740.75;;;18.40;45.56
12146;BME280;6136;47.032;15.398;2023-02-24T09:35:55;96727.59;;;18.12;46.13
12146;BME280;6136;47.032;15.398;2023-02-24T09:38:42;96725.78;;;18.79;44.25
12146;BME280;6136;47.032;15.398;2023-02-24T09:41:31;96731.44;;;19.57;42.62
12146;BME280;6136;47.032;15.398;2023-02-24T09:44:26;96735.94;;;19.73;42.64
12146;BME280;6136;47.032;15.398;2023-02-24T09:46:59;96730.13;;;19.13;43.47
12146;BME280;6136;47.032;15.398;2023-02-24T09:49:43;96722.03;;;19.61;41.52
12146;BME280;6136;47.032;15.398;2023-02-24T09:52:16;96724.16;;;20.21;40.83
12146;BME280;6136;47.032;15.398;2023-02-24T09:54:47;96710.31;;;22.34;35.40
12146;BME280;6136;47.032;15.398;2023-02-24T09:57:42;96708.81;;;23.32;33.94
12146;BME280;6136;47.032;15.398;2023-02-24T10:00:40;96706.72;;;24.78;32.11
12146;BME280;6136;47.032;15.398;2023-02-24T10:03:17;96704.44;;;23.86;32.18
12146;BME280;6136;47.032;15.398;2023-02-24T10:06:15;96700.63;;;22.61;34.58
12146;BME280;6136;47.032;15.398;2023-02-24T10:08:53;96699.91;;;21.87;35.66
12146;BME280;6136;47.032;15.398;2023-02-24T10:11:25;96686.69;;;21.34;36.29
12146;BME280;6136;47.032;15.398;2023-02-24T10:14:04;96693.69;;;20.29;37.33
12146;BME280;6136;47.032;15.398;2023-02-24T10:16:36;96688.91;;;20.08;38.27
12146;BME280;6136;47.032;15.398;2023-02-24T10:19:17;96679.72;;;21.24;35.19
12146;BME280;6136;47.032;15.398;2023-02-24T10:21:53;96683.75;;;22.95;32.75
12146;BME280;6136;47.032;15.398;2023-02-24T10:24:34;96675.94;;;22.07;33.65
12146;BME280;6136;47.032;15.398;2023-02-24T10:27:10;96676.75;;;21.34;35.72
12146;BME280;6136;47.032;15.398;2023-02-24T10:29:52;96664.00;;;21.05;36.04
12146;BME280;6136;47.032;15.398;2023-02-24T10:32:37;96666.00;;;20.74;36.91
12146;BME280;6136;47.032;15.398;2023-02-24T10:35:13;96671.38;;;20.51;37.42
12146;BME280;6136;47.032;15.398;2023-02-24T10:37:43;96668.97;;;20.56;36.68
12146;BME280;6136;47.032;15.398;2023-02-24T10:40:14;96668.00;;;19.48;38.85
12146;BME280;6136;47.032;15.398;2023-02-24T10:43:03;96662.94;;;18.32;41.91
12146;BME280;6136;47.032;15.398;2023-02-24T10:45:38;96657.91;;;18.20;42.30
12146;BME280;6136;47.032;15.398;2023-02-24T10:48:16;96650.13;;;17.85;43.20
12146;BME280;6136;47.032;15.398;2023-02-24T10:51:12;96645.34;;;17.63;44.01
12146;BME280;6136;47.032;15.398;2023-02-24T10:53:47;96636.31;;;17.72;44.41
12146;BME280;6136;47.032;15.398;2023-02-24T10:56:32;96638.03;;;17.81;45.30
12146;BME280;6136;47.032;15.398;2023-02-24T10:59:12;96635.28;;;19.75;40.98
12146;BME280;6136;47.032;15.398;2023-02-24T11:02:16;96609.06;;;20.77;38.57
12146;BME280;6136;47.032;15.398;2023-02-24T11:04:56;96601.72;;;20.71;38.11
12146;BME280;6136;47.032;15.398;2023-02-24T11:07:45;96594.66;;;21.22;36.82
12146;BME280;6136;47.032;15.398;2023-02-24T11:10:21;96587.34;;;21.96;35.60
12146;BME280;6136;47.032;15.398;2023-02-24T11:13:00;96594.56;;;21.74;35.35
12146;BME280;6136;47.032;15.398;2023-02-24T11:15:47;96586.16;;;21.98;34.59
12146;BME280;6136;47.032;15.398;2023-02-24T11:18:34;96576.47;;;22.25;33.95
12146;BME280;6136;47.032;15.398;2023-02-24T11:21:08;96580.81;;;21.10;35.69
12146;BME280;6136;47.032;15.398;2023-02-24T11:23:40;96574.94;;;21.65;34.63
12146;BME280;6136;47.032;15.398;2023-02-24T11:26:14;96561.25;;;22.18;34.05
12146;BME280;6136;47.032;15.398;2023-02-24T11:28:54;96565.84;;;22.02;34.55
12146;BME280;6136;47.032;15.398;2023-02-24T11:31:39;96555.47;;;21.99;34.86
12146;BME280;6136;47.032;15.398;2023-02-24T11:34:17;96544.78;;;22.55;33.29
12146;BME280;6136;47.032;15.398;2023-02-24T11:36:54;96541.22;;;22.27;33.35
12146;BME280;6136;47.032;15.398;2023-02-24T11:39:39;96531.91;;;23.47;31.25
12146;BME280;6136;47.032;15.398;2023-02-24T11:42:14;96529.19;;;22.51;32.99
12146;BME280;6136;47.032;15.398;2023-02-24T11:44:50;96519.00;;;23.90;30.67
12146;BME280;6136;47.032;15.398;2023-02-24T11:47:25;96510.09;;;25.22;28.69
12146;BME280;6136;47.032;15.398;2023-02-24T11:50:02;96509.06;;;25.16;28.91
12146;BME280;6136;47.032;15.398;2023-02-24T11:52:35;96503.59;;;25.36;28.80
12146;BME280;6136;47.032;15.398;2023-02-24T11:55:13;96495.34;;;24.91;28.41
12146;BME280;6136;47.032;15.398;2023-02-24T11:57:49;96493.72;;;24.38;29.62
12146;BME280;6136;47.032;15.398;2023-02-24T12:00:24;96490.28;;;23.01;30.92
12146;BME280;6136;47.032;15.398;2023-02-24T12:02:58;96494.13;;;22.57;32.79
12146;BME280;6136;47.032;15.398;2023-02-24T12:05:32;96488.28;;;22.54;32.00
12146;BME280;6136;47.032;15.398;2023-02-24T12:08:06;96483.75;;;21.04;34.46
12146;BME280;6136;47.032;15.398;2023-02-24T12:10:40;96476.31;;;21.56;33.50
12146;BME280;6136;47.032;15.398;2023-02-24T12:13:18;96472.59;;;21.21;34.88
12146;BME280;6136;47.032;15.398;2023-02-24T12:15:55;96464.28;;;20.35;35.02
12146;BME280;6136;47.032;15.398;2023-02-24T12:18:30;96466.59;;;20.00;36.22
12146;BME280;6136;47.032;15.398;2023-02-24T12:21:03;96456.91;;;20.51;35.64
12146;BME280;6136;47.032;15.398;2023-02-24T12:23:34;96448.72;;;20.89;34.78
12146;BME280;6136;47.032;15.398;2023-02-24T12:26:14;96452.97;;;20.39;35.18
12146;BME280;6136;47.032;15.398;2023-02-24T12:28:57;96443.03;;;20.40;34.44
12146;BME280;6136;47.032;15.398;2023-02-24T12:31:35;96447.34;;;20.26;35.24
12146;BME280;6136;47.032;15.398;2023-02-24T12:34:11;96433.75;;;20.05;35.85
12146;BME280;6136;47.032;15.398;2023-02-24T12:36:56;96428.13;;;20.14;36.33
12146;BME280;6136;47.032;15.398;2023-02-24T12:39:40;96424.88;;;20.57;35.73
12146;BME280;6136;47.032;15.398;2023-02-24T12:42:20;96414.47;;;20.16;36.42
12146;BME280;6136;47.032;15.398;2023-02-24T12:44:57;96415.81;;;19.29;37.88
12146;BME280;6136;47.032;15.398;2023-02-24T12:47:38;96404.34;;;19.35;37.47
12146;BME280;6136;47.032;15.398;2023-02-24T12:50:30;96400.03;;;19.80;36.60
12146;BME280;6136;47.032;15.398;2023-02-24T12:53:09;96389.22;;;20.40;35.95
12146;BME280;6136;47.032;15.398;2023-02-24T12:55:48;96382.59;;;21.58;33.72
12146;BME280;6136;47.032;15.398;2023-02-24T12:58:24;96379.38;;;22.12;32.98
12146;BME280;6136;47.032;15.398;2023-02-24T13:01:04;96370.94;;;22.56;31.83
12146;BME280;6136;47.032;15.398;2023-02-24T13:03:58;96366.44;;;23.85;30.33
12146;BME280;6136;47.032;15.398;2023-02-24T13:06:40;96360.81;;;23.99;29.73
12146;BME280;6136;47.032;15.398;2023-02-24T13:09:18;96355.75;;;24.62;28.35
12146;BME280;6136;47.032;15.398;2023-02-24T13:11:53;96353.97;;;25.01;27.56
12146;BME280;6136;47.032;15.398;2023-02-24T13:14:26;96349.22;;;24.96;27.86
12146;BME280;6136;47.032;15.398;2023-02-24T13:17:15;96341.84;;;25.10;27.28
12146;BME280;6136;47.032;15.398;2023-02-24T13:19:48;96338.31;;;24.12;29.13
12146;BME280;6136;47.032;15.398;2023-02-24T13:22:26;96343.28;;;24.42;28.97
12146;BME280;6136;47.032;15.398;2023-02-24T13:25:08;96343.09;;;24.10;28.95
12146;BME280;6136;47.032;15.398;2023-02-24T13:27:40;96336.28;;;25.99;26.77
12146;BME280;6136;47.032;15.398;2023-02-24T13:30:25;96330.13;;;25.85;26.00
12146;BME280;6136;47.032;15.398;2023-02-24T13:33:03;96329.97;;;26.48;25.01
12146;BME280;6136;47.032;15.398;2023-02-24T13:35:35;96316.38;;;25.49;26.35
12146;BME280;6136;47.032;15.398;2023-02-24T13:38:20;96320.41;;;24.11;28.64
12146;BME280;6136;47.032;15.398;2023-02-24T13:40:49;96303.72;;;24.41;28.14
12146;BME280;6136;47.032;15.398;2023-02-24T13:43:24;96307.91;;;23.64;29.79
12146;BME280;6136;47.032;15.398;2023-02-24T13:45:56;96300.41;;;24.25;28.77
12146;BME280;6136;47.032;15.398;2023-02-24T13:48:39;96302.13;;;23.60;29.78